createdAt,value
2018-02-07T00:02:20.508Z,27.70
2018-02-07T00:04:47.998Z,26.47
2018-02-07T00:07:15.486Z,25.70
2018-02-07T00:09:42.948Z,28.07
2018-02-07T00:12:10.436Z,25.20
2018-02-07T00:14:37.912Z,25.53
2018-02-07T00:17:05.395Z,27.87
2018-02-07T00:19:32.857Z,26.97
2018-02-07T00:22:00.338Z,29.10
2018-02-07T00:24:27.846Z,28.63
2018-02-07T00:26:55.339Z,28.27
2018-02-07T00:29:22.813Z,26.23
2018-02-07T00:31:50.297Z,27.27
2018-02-07T00:34:18.521Z,26.40
2018-02-07T00:36:46.019Z,27.90
2018-02-07T00:39:14.245Z,27.50
2018-02-07T00:41:41.717Z,26.97
2018-02-07T00:44:09.186Z,28.90
2018-02-07T00:46:36.670Z,27.07
2018-02-07T00:49:04.898Z,27.33
2018-02-07T00:51:33.681Z,28.00
2018-02-07T00:54:01.133Z,28.20
2018-02-07T00:56:28.616Z,27.60
2018-02-07T00:58:56.137Z,26.83
2018-02-07T01:01:25.035Z,28.33
2018-02-07T01:03:52.554Z,26.50
2018-02-07T01:06:20.037Z,25.63
2018-02-07T01:08:48.427Z,27.83
2018-02-07T01:11:17.049Z,25.07
2018-02-07T01:13:45.417Z,26.60
2018-02-07T01:16:15.514Z,27.30
2018-02-07T01:18:44.957Z,26.43
2018-02-07T01:21:20.179Z,25.80
2018-02-07T01:23:48.534Z,27.47
2018-02-07T01:26:18.249Z,25.40
2018-02-07T01:28:48.259Z,26.80
2018-02-07T01:31:16.513Z,26.70
2018-02-07T01:33:47.594Z,26.83
2018-02-07T01:36:17.952Z,26.30
2018-02-07T01:38:46.201Z,27.00
2018-02-07T01:41:16.614Z,25.40
2018-02-07T01:43:45.627Z,25.40
2018-02-07T01:46:14.937Z,27.30
2018-02-07T01:48:42.468Z,27.07
2018-02-07T01:51:09.942Z,26.53
2018-02-07T01:53:37.405Z,27.30
2018-02-07T01:56:04.892Z,26.77
2018-02-07T01:58:32.359Z,27.03
2018-02-07T02:01:00.606Z,27.20
2018-02-07T02:03:28.087Z,25.40
2018-02-07T02:05:56.393Z,24.83
2018-02-07T02:08:24.627Z,26.97
2018-02-07T02:10:52.093Z,23.80
2018-02-07T02:13:28.249Z,26.53
2018-02-07T02:15:55.834Z,26.23
2018-02-07T02:18:24.065Z,26.27
2018-02-07T02:20:51.542Z,24.77
2018-02-07T02:23:19.034Z,26.43
2018-02-07T02:25:47.270Z,26.03
2018-02-07T02:28:14.761Z,23.63
2018-02-07T02:30:43.011Z,25.10
2018-02-07T02:33:10.490Z,24.77
2018-02-07T02:35:37.984Z,25.80
2018-02-07T02:38:05.459Z,24.53
2018-02-07T02:40:32.934Z,23.53
2018-02-07T02:43:00.456Z,23.77
2018-02-07T02:45:27.930Z,24.07
2018-02-07T02:47:55.439Z,24.53
2018-02-07T02:50:25.473Z,24.23
2018-02-07T02:52:53.706Z,22.37
2018-02-07T02:55:21.178Z,24.90
2018-02-07T02:57:48.703Z,23.57
2018-02-07T03:00:16.892Z,23.10
2018-02-07T03:02:44.398Z,23.37
2018-02-07T03:05:12.650Z,23.87
2018-02-07T03:07:40.125Z,25.43
2018-02-07T03:10:08.371Z,25.07
2018-02-07T03:12:36.624Z,26.40
2018-02-07T03:15:04.082Z,27.47
2018-02-07T03:17:31.566Z,24.23
2018-02-07T03:19:59.050Z,24.43
2018-02-07T03:22:26.514Z,24.80
2018-02-07T03:24:54.755Z,25.10
2018-02-07T03:27:22.649Z,23.90
2018-02-07T03:29:50.915Z,24.20
2018-02-07T03:32:18.394Z,24.25
2018-02-07T03:34:46.641Z,25.03
2018-02-07T03:37:14.121Z,23.17
2018-02-07T03:39:42.365Z,24.00
2018-02-07T03:42:09.850Z,23.60
2018-02-07T03:44:37.310Z,24.33
2018-02-07T03:47:04.810Z,24.07
2018-02-07T03:49:32.278Z,23.93
2018-02-07T03:51:59.759Z,22.53
2018-02-07T03:54:27.240Z,23.77
2018-02-07T03:56:54.731Z,22.80
2018-02-07T03:59:22.232Z,22.57
2018-02-07T04:01:49.714Z,21.97
2018-02-07T04:04:17.188Z,23.30
2018-02-07T04:06:45.431Z,21.80
2018-02-07T04:09:12.899Z,22.27
2018-02-07T04:11:40.373Z,22.37
2018-02-07T04:14:08.620Z,26.67
2018-02-07T04:16:36.102Z,27.77
2018-02-07T04:19:03.583Z,23.20
2018-02-07T04:21:31.100Z,22.77
2018-02-07T04:23:58.582Z,22.13
2018-02-07T04:26:26.823Z,23.63
2018-02-07T04:28:54.296Z,25.63
2018-02-07T04:31:21.791Z,24.00
2018-02-07T04:33:50.040Z,25.10
2018-02-07T04:36:17.520Z,27.17
2018-02-07T04:38:45.778Z,25.17
2018-02-07T04:41:13.267Z,27.10
2018-02-07T04:43:40.763Z,24.17
2018-02-07T04:46:08.227Z,23.67
2018-02-07T04:48:35.706Z,23.50
2018-02-07T04:51:03.183Z,23.40
2018-02-07T04:53:31.432Z,23.13
2018-02-07T04:55:58.904Z,23.63
2018-02-07T04:58:26.378Z,24.00
2018-02-07T05:00:54.603Z,24.27
2018-02-07T05:03:22.078Z,21.97
2018-02-07T05:05:49.557Z,25.10
2018-02-07T05:08:17.826Z,22.67
2018-02-07T05:10:45.296Z,25.63
2018-02-07T05:13:13.538Z,21.40
2018-02-07T05:15:41.023Z,22.23
2018-02-07T05:18:08.520Z,22.50
2018-02-07T05:20:35.990Z,22.50
2018-02-07T05:23:03.471Z,23.03
2018-02-07T05:25:30.941Z,23.90
2018-02-07T05:27:58.405Z,26.60
2018-02-07T05:30:25.895Z,24.17
2018-02-07T05:32:54.160Z,24.57
2018-02-07T05:35:22.405Z,22.67
2018-02-07T05:37:49.877Z,23.73
2018-02-07T05:40:17.355Z,23.10
2018-02-07T05:42:45.623Z,23.87
2018-02-07T05:45:13.879Z,23.67
2018-02-07T05:47:41.364Z,24.00
2018-02-07T05:50:09.943Z,22.87
2018-02-07T05:52:38.211Z,23.27
2018-02-07T05:55:05.699Z,24.60
2018-02-07T05:57:33.948Z,23.90
2018-02-07T06:00:01.418Z,25.90
2018-02-07T06:02:30.639Z,26.40
2018-02-07T06:04:58.102Z,24.47
2018-02-07T06:07:25.594Z,22.97
2018-02-07T06:09:53.074Z,22.60
2018-02-07T06:12:21.532Z,23.70
2018-02-07T06:14:49.017Z,22.10
2018-02-07T06:17:16.516Z,24.73
2018-02-07T06:19:44.004Z,23.17
2018-02-07T06:22:12.238Z,22.00
2018-02-07T06:24:39.730Z,24.73
2018-02-07T06:27:07.202Z,21.77
2018-02-07T06:29:34.709Z,22.97
2018-02-07T06:32:02.948Z,23.73
2018-02-07T06:34:30.451Z,22.80
2018-02-07T06:36:58.687Z,22.53
2018-02-07T06:39:27.108Z,22.60
2018-02-07T06:41:55.354Z,22.20
2018-02-07T06:44:22.830Z,23.73
2018-02-07T06:46:51.064Z,23.77
2018-02-07T06:49:18.551Z,22.80
2018-02-07T06:51:46.010Z,23.10
2018-02-07T06:54:14.258Z,22.87
2018-02-07T06:56:41.751Z,21.37
2018-02-07T06:59:10.020Z,23.87
2018-02-07T07:01:37.488Z,23.73
2018-02-07T07:04:05.742Z,23.87
2018-02-07T07:06:33.223Z,23.97
2018-02-07T07:09:01.483Z,23.47
2018-02-07T07:11:28.955Z,21.83
2018-02-07T07:13:57.206Z,24.20
2018-02-07T07:16:24.673Z,23.97
2018-02-07T07:18:52.149Z,24.80
2018-02-07T07:21:20.391Z,22.40
2018-02-07T07:23:47.879Z,24.70
2018-02-07T07:26:16.131Z,23.97
2018-02-07T07:28:43.603Z,25.13
2018-02-07T07:31:11.088Z,22.10
2018-02-07T07:33:39.339Z,24.07
2018-02-07T07:36:06.825Z,24.60
2018-02-07T07:38:34.329Z,23.53
2018-02-07T07:41:01.832Z,23.30
2018-02-07T07:43:30.078Z,23.10
2018-02-07T07:45:57.556Z,24.90
2018-02-07T07:48:25.027Z,27.17
2018-02-07T07:50:53.270Z,24.73
2018-02-07T07:53:20.776Z,26.00
2018-02-07T07:55:50.373Z,22.33
2018-02-07T07:58:17.893Z,22.93
2018-02-07T08:00:47.961Z,23.33
2018-02-07T08:03:21.871Z,25.23
2018-02-07T08:05:49.357Z,21.60
2018-02-07T08:08:16.841Z,23.27
2018-02-07T08:10:44.322Z,24.43
2018-02-07T08:13:12.568Z,23.50
2018-02-07T08:15:40.052Z,22.03
2018-02-07T08:18:08.298Z,22.33
2018-02-07T08:20:35.777Z,21.93
2018-02-07T08:23:03.263Z,21.93
2018-02-07T08:25:30.747Z,23.80
2018-02-07T08:27:59.127Z,23.20
2018-02-07T08:30:26.703Z,21.03
2018-02-07T08:32:56.944Z,22.90
2018-02-07T08:35:28.082Z,22.17
2018-02-07T08:37:55.584Z,23.80
2018-02-07T08:40:23.946Z,22.87
2018-02-07T08:42:53.669Z,24.27
2018-02-07T08:45:22.398Z,23.03
2018-02-07T08:47:50.305Z,24.00
2018-02-07T08:50:20.279Z,22.83
2018-02-07T08:52:47.891Z,23.50
2018-02-07T08:55:16.151Z,22.93
2018-02-07T08:57:43.668Z,20.77
2018-02-07T09:00:15.622Z,19.63
2018-02-07T09:02:44.218Z,20.77
2018-02-07T09:05:16.574Z,20.90
2018-02-07T09:07:44.045Z,21.70
2018-02-07T09:10:11.540Z,21.47
2018-02-07T09:12:39.010Z,20.17
2018-02-07T09:15:06.499Z,20.20
2018-02-07T09:17:35.970Z,19.07
2018-02-07T09:20:03.454Z,20.10
2018-02-07T09:22:31.700Z,19.80
2018-02-07T09:24:59.175Z,19.40
2018-02-07T09:27:26.651Z,18.90
2018-02-07T09:29:54.152Z,19.10
2018-02-07T09:32:21.623Z,19.57
2018-02-07T09:34:49.119Z,18.73
2018-02-07T09:37:16.927Z,18.10
2018-02-07T09:39:44.402Z,17.50
2018-02-07T09:42:11.891Z,17.33
2018-02-07T09:44:39.378Z,17.90
2018-02-07T09:47:07.634Z,18.30
2018-02-07T09:49:35.877Z,17.30
2018-02-07T09:52:03.359Z,18.10
2018-02-07T09:54:30.839Z,17.63
2018-02-07T09:56:58.730Z,17.67
2018-02-07T09:59:26.207Z,17.57
2018-02-07T10:01:53.683Z,17.97
2018-02-07T10:04:21.177Z,17.63
2018-02-07T10:06:49.414Z,19.20
2018-02-07T10:09:16.924Z,19.00
2018-02-07T10:11:44.570Z,18.90
2018-02-07T10:14:12.296Z,18.30
2018-02-07T10:16:39.766Z,18.83
2018-02-07T10:19:07.251Z,18.20
2018-02-07T10:21:35.492Z,19.17
2018-02-07T10:24:02.976Z,17.83
2018-02-07T10:26:32.753Z,18.10
2018-02-07T10:29:01.878Z,18.80
2018-02-07T10:31:29.369Z,18.13
2018-02-07T10:33:56.846Z,18.87
2018-02-07T10:36:24.327Z,17.30
2018-02-07T10:38:51.805Z,18.73
2018-02-07T10:41:19.283Z,18.20
2018-02-07T10:43:47.528Z,16.93
2018-02-07T10:46:15.000Z,17.30
2018-02-07T10:48:42.488Z,18.73
2018-02-07T10:51:10.731Z,17.47
2018-02-07T10:53:38.199Z,19.17
2018-02-07T10:56:05.690Z,18.43
2018-02-07T10:58:33.142Z,18.07
2018-02-07T11:01:00.621Z,18.33
2018-02-07T11:03:28.091Z,18.67
2018-02-07T11:05:55.566Z,17.43
2018-02-07T11:08:23.799Z,18.20
2018-02-07T11:10:51.290Z,19.40
2018-02-07T11:13:18.755Z,19.93
2018-02-07T11:15:46.248Z,18.87
2018-02-07T11:18:14.482Z,18.23
2018-02-07T11:20:41.964Z,18.27
2018-02-07T11:23:09.442Z,18.87
2018-02-07T11:25:37.685Z,17.40
2018-02-07T11:28:05.158Z,18.03
2018-02-07T11:30:32.628Z,19.60
2018-02-07T11:33:00.651Z,19.43
2018-02-07T11:35:28.122Z,18.47
2018-02-07T11:37:56.036Z,19.57
2018-02-07T11:40:23.550Z,18.63
2018-02-07T11:42:51.037Z,17.00
2018-02-07T11:45:18.519Z,18.40
2018-02-07T11:47:46.001Z,18.23
2018-02-07T11:50:13.485Z,19.77
2018-02-07T11:52:40.954Z,20.07
2018-02-07T11:55:08.444Z,17.43
2018-02-07T11:57:36.704Z,18.63
2018-02-07T12:00:04.208Z,18.53
2018-02-07T12:02:31.675Z,17.33
2018-02-07T12:04:59.182Z,18.77
2018-02-07T12:07:26.646Z,19.13
2018-02-07T12:09:54.914Z,18.73
2018-02-07T12:12:22.373Z,19.80
2018-02-07T12:14:49.855Z,19.60
2018-02-07T12:17:18.098Z,18.43
2018-02-07T12:19:45.582Z,19.00
2018-02-07T12:22:13.076Z,18.73
2018-02-07T12:24:40.565Z,17.83
2018-02-07T12:27:08.094Z,18.47
2018-02-07T12:29:36.556Z,20.40
2018-02-07T12:32:04.027Z,20.63
2018-02-07T12:34:31.488Z,20.70
2018-02-07T12:36:58.980Z,17.90
2018-02-07T12:39:26.452Z,21.60
2018-02-07T12:41:53.939Z,20.37
2018-02-07T12:44:22.182Z,21.50
2018-02-07T12:46:49.705Z,21.30
2018-02-07T12:49:17.147Z,19.50
2018-02-07T12:51:44.627Z,20.40
2018-02-07T12:54:12.084Z,20.70
2018-02-07T12:56:39.575Z,20.57
2018-02-07T12:59:07.048Z,21.27
2018-02-07T13:01:35.285Z,19.30
2018-02-07T13:04:02.759Z,20.77
2018-02-07T13:06:30.253Z,21.37
2018-02-07T13:08:59.311Z,22.33
2018-02-07T13:11:26.864Z,22.03
2018-02-07T13:13:54.339Z,21.37
2018-02-07T13:16:21.837Z,33.20
2018-02-07T13:18:50.071Z,21.97
2018-02-07T13:21:17.551Z,22.23
2018-02-07T13:23:45.803Z,21.50
2018-02-07T13:26:13.293Z,21.20
2018-02-07T13:28:41.537Z,22.60
2018-02-07T13:31:09.007Z,20.57
2018-02-07T13:33:36.513Z,21.50
2018-02-07T13:36:03.984Z,20.90
2018-02-07T13:38:31.492Z,20.93
2018-02-07T13:40:58.954Z,21.40
2018-02-07T13:43:27.197Z,22.20
2018-02-07T13:45:54.676Z,21.70
2018-02-07T13:48:22.147Z,22.03
2018-02-07T13:50:50.427Z,19.40
2018-02-07T13:53:18.663Z,21.50
2018-02-07T13:55:46.140Z,21.03
2018-02-07T13:58:13.634Z,20.97
2018-02-07T14:00:46.755Z,23.00
2018-02-07T14:03:14.237Z,21.00
2018-02-07T14:05:41.736Z,20.90
2018-02-07T14:08:09.975Z,21.30
2018-02-07T14:10:37.464Z,22.27
2018-02-07T14:13:05.737Z,23.77
2018-02-07T14:15:33.328Z,21.80
2018-02-07T14:18:00.803Z,23.00
2018-02-07T14:20:28.282Z,21.43
2018-02-07T14:22:55.739Z,21.30
2018-02-07T14:25:23.991Z,21.33
2018-02-07T14:27:51.476Z,20.77
2018-02-07T14:30:18.958Z,22.60
2018-02-07T14:32:46.439Z,21.20
2018-02-07T14:35:13.921Z,22.80
2018-02-07T14:37:41.461Z,19.20
2018-02-07T14:40:08.932Z,22.70
2018-02-07T14:42:36.409Z,20.30
2018-02-07T14:45:03.881Z,23.53
2018-02-07T14:47:31.347Z,22.30
2018-02-07T14:49:58.816Z,23.53
2018-02-07T14:52:26.310Z,20.70
2018-02-07T14:54:53.787Z,27.27
2018-02-07T14:57:21.282Z,24.20
2018-02-07T14:59:48.768Z,24.17
2018-02-07T15:02:17.018Z,24.50
2018-02-07T15:04:44.503Z,22.73
2018-02-07T15:07:12.776Z,23.50
2018-02-07T15:09:41.051Z,22.93
2018-02-07T15:12:09.299Z,23.43
2018-02-07T15:14:36.757Z,23.80
2018-02-07T15:17:04.234Z,24.07
2018-02-07T15:19:32.470Z,24.80
2018-02-07T15:21:59.949Z,21.93
2018-02-07T15:24:27.417Z,21.93
2018-02-07T15:26:54.917Z,22.90
2018-02-07T15:29:22.464Z,23.10
2018-02-07T15:31:50.706Z,22.43
2018-02-07T15:34:18.200Z,21.77
2018-02-07T15:36:46.440Z,22.50
2018-02-07T15:39:13.902Z,23.80
2018-02-07T15:41:41.388Z,23.70
2018-02-07T15:44:09.618Z,21.80
2018-02-07T15:46:37.099Z,23.50
2018-02-07T15:49:04.575Z,21.40
2018-02-07T15:51:32.822Z,25.57
2018-02-07T15:54:00.286Z,24.10
2018-02-07T15:56:27.770Z,23.87
2018-02-07T15:58:56.015Z,24.13
2018-02-07T16:01:23.543Z,21.37
2018-02-07T16:03:51.761Z,21.73
2018-02-07T16:06:19.263Z,21.40
2018-02-07T16:08:46.752Z,26.03
2018-02-07T16:11:14.231Z,24.20
2018-02-07T16:13:41.703Z,22.87
2018-02-07T16:16:09.959Z,24.30
2018-02-07T16:18:37.443Z,23.60
2018-02-07T16:21:05.688Z,26.40
2018-02-07T16:23:33.166Z,22.97
2018-02-07T16:26:00.644Z,22.70
2018-02-07T16:28:28.880Z,24.13
2018-02-07T16:30:56.351Z,22.50
2018-02-07T16:33:23.841Z,25.60
2018-02-07T16:35:51.341Z,23.58
2018-02-07T16:38:18.819Z,22.30
2018-02-07T16:40:46.305Z,20.23
2018-02-07T16:43:14.582Z,21.47
2018-02-07T16:45:42.837Z,24.27
2018-02-07T16:48:10.335Z,23.98
2018-02-07T16:50:38.572Z,22.10
2018-02-07T16:53:06.074Z,21.40
2018-02-07T16:55:33.554Z,21.70
2018-02-07T16:58:01.044Z,22.60
2018-02-07T17:00:28.521Z,22.30
2018-02-07T17:02:56.790Z,23.30
2018-02-07T17:05:24.261Z,21.00
2018-02-07T17:07:52.507Z,22.20
2018-02-07T17:10:20.006Z,19.70
2018-02-07T17:12:48.255Z,20.87
2018-02-07T17:15:15.744Z,21.47
2018-02-07T17:17:43.255Z,22.77
2018-02-07T17:20:10.744Z,23.45
2018-02-07T17:22:38.990Z,22.17
2018-02-07T17:25:06.474Z,21.70
2018-02-07T17:27:34.730Z,21.83
2018-02-07T17:30:02.214Z,24.37
2018-02-07T17:32:30.484Z,20.90
2018-02-07T17:34:57.955Z,22.33
2018-02-07T17:37:26.207Z,24.43
2018-02-07T17:39:53.689Z,27.03
2018-02-07T17:42:21.949Z,27.03
2018-02-07T17:44:49.446Z,27.97
2018-02-07T17:47:16.957Z,28.27
2018-02-07T17:49:44.440Z,26.00
2018-02-07T17:52:12.737Z,28.23
2018-02-07T17:54:40.223Z,25.20
2018-02-07T17:57:07.710Z,24.80
2018-02-07T17:59:35.216Z,26.90
2018-02-07T18:02:02.690Z,25.70
2018-02-07T18:04:30.167Z,27.23
2018-02-07T18:06:57.661Z,27.37
2018-02-07T18:09:25.925Z,29.10
2018-02-07T18:11:53.416Z,26.30
2018-02-07T18:14:20.894Z,28.25
2018-02-07T18:16:48.370Z,26.45
2018-02-07T18:19:15.861Z,25.12
2018-02-07T18:21:43.358Z,25.42
2018-02-07T18:24:10.842Z,26.10
2018-02-07T18:26:38.330Z,24.45
2018-02-07T18:29:05.813Z,25.90
2018-02-07T18:31:33.319Z,25.42
2018-02-07T18:34:00.804Z,25.05
2018-02-07T18:36:28.288Z,23.20
2018-02-07T18:38:57.521Z,25.73
2018-02-07T18:41:25.017Z,23.38
2018-02-07T18:43:52.536Z,25.77
2018-02-07T18:46:20.015Z,25.65
2018-02-07T18:48:47.493Z,25.27
2018-02-07T18:51:14.973Z,23.70
2018-02-07T18:53:43.232Z,23.27
2018-02-07T18:56:10.720Z,21.37
2018-02-07T18:58:38.201Z,24.83
2018-02-07T19:01:05.682Z,26.02
2018-02-07T19:03:33.187Z,24.85
2018-02-07T19:06:00.678Z,23.83
2018-02-07T19:08:28.685Z,25.45
2018-02-07T19:10:56.988Z,27.25
2018-02-07T19:13:25.251Z,23.65
2018-02-07T19:15:53.502Z,27.40
2018-02-07T19:18:21.025Z,28.50
2018-02-07T19:20:48.493Z,25.88
2018-02-07T19:23:15.987Z,27.50
2018-02-07T19:25:43.465Z,24.87
2018-02-07T19:28:10.944Z,23.40
2018-02-07T19:30:38.428Z,25.37
2018-02-07T19:33:05.921Z,27.45
2018-02-07T19:35:33.390Z,25.37
2018-02-07T19:38:00.884Z,26.73
2018-02-07T19:40:28.379Z,27.95
2018-02-07T19:42:55.875Z,28.70
2018-02-07T19:45:24.132Z,28.45
2018-02-07T19:47:51.602Z,28.67
2018-02-07T19:50:19.837Z,28.58
2018-02-07T19:52:47.330Z,26.85
2018-02-07T19:55:14.812Z,28.30
2018-02-07T19:57:43.079Z,30.27
2018-02-07T20:00:11.313Z,25.67
2018-02-07T20:02:39.572Z,27.48
2018-02-07T20:05:07.043Z,27.20
2018-02-07T20:07:34.536Z,28.70
2018-02-07T20:10:02.019Z,27.50
2018-02-07T20:12:30.285Z,27.83
2018-02-07T20:14:58.585Z,28.87
2018-02-07T20:17:26.055Z,30.23
2018-02-07T20:19:53.522Z,30.37
2018-02-07T20:22:21.036Z,29.45
2018-02-07T20:24:49.291Z,28.52
2018-02-07T20:27:16.784Z,27.37
2018-02-07T20:29:44.271Z,29.25
2018-02-07T20:32:11.768Z,26.75
2018-02-07T20:34:41.785Z,27.95
2018-02-07T20:37:09.318Z,27.33
2018-02-07T20:39:36.866Z,30.58
2018-02-07T20:42:04.373Z,29.80
2018-02-07T20:44:32.639Z,27.25
2018-02-07T20:47:00.141Z,24.60
2018-02-07T20:49:27.682Z,28.60
2018-02-07T20:51:55.125Z,30.30
2018-02-07T20:54:23.391Z,29.70
2018-02-07T20:56:50.883Z,29.10
2018-02-07T20:59:18.364Z,31.70
2018-02-07T21:01:45.844Z,28.42
2018-02-07T21:04:13.336Z,28.83
2018-02-07T21:06:41.608Z,31.40
2018-02-07T21:09:09.095Z,34.63
2018-02-07T21:11:36.590Z,35.10
2018-02-07T21:14:04.079Z,34.10
2018-02-07T21:16:31.586Z,34.10
2018-02-07T21:18:59.089Z,35.17
2018-02-07T21:21:26.578Z,35.40
2018-02-07T21:23:54.836Z,34.28
2018-02-07T21:26:22.325Z,35.15
2018-02-07T21:28:49.828Z,34.75
2018-02-07T21:31:17.315Z,33.83
2018-02-07T21:33:44.839Z,35.87
2018-02-07T21:36:12.319Z,34.33
2018-02-07T21:38:39.801Z,32.58
2018-02-07T21:41:08.046Z,44.97
2018-02-07T21:43:35.541Z,39.92
2018-02-07T21:46:03.793Z,35.93
2018-02-07T21:48:32.102Z,36.33
2018-02-07T21:50:59.594Z,36.80
2018-02-07T21:53:27.065Z,37.03
2018-02-07T21:55:54.564Z,36.20
2018-02-07T21:58:22.816Z,35.70
2018-02-07T22:00:50.298Z,34.37
2018-02-07T22:03:18.552Z,35.67
2018-02-07T22:05:46.024Z,38.80
2018-02-07T22:08:13.515Z,40.17
2018-02-07T22:10:41.007Z,41.50
2018-02-07T22:13:09.238Z,36.87
2018-02-07T22:15:36.733Z,35.10
2018-02-07T22:18:04.206Z,36.17
2018-02-07T22:20:31.691Z,33.87
2018-02-07T22:22:59.183Z,33.53
2018-02-07T22:25:26.662Z,33.73
2018-02-07T22:27:54.148Z,33.43
2018-02-07T22:30:21.618Z,36.40
2018-02-07T22:32:49.120Z,34.30
2018-02-07T22:35:16.622Z,34.50
2018-02-07T22:37:44.105Z,33.00
2018-02-07T22:40:12.359Z,34.57
2018-02-07T22:42:39.853Z,31.47
2018-02-07T22:45:07.335Z,32.35
2018-02-07T22:47:34.810Z,35.60
2018-02-07T22:50:02.291Z,31.20
2018-02-07T22:52:29.758Z,33.50
2018-02-07T22:54:57.255Z,31.30
2018-02-07T22:57:24.753Z,32.17
2018-02-07T22:59:52.247Z,31.20
2018-02-07T23:02:20.513Z,34.77
2018-02-07T23:04:48.776Z,33.27
2018-02-07T23:07:16.256Z,35.30
2018-02-07T23:09:44.507Z,34.93
2018-02-07T23:12:12.021Z,33.80
2018-02-07T23:14:39.509Z,35.70
2018-02-07T23:17:06.986Z,34.03
2018-02-07T23:19:37.916Z,34.03
2018-02-07T23:22:05.406Z,36.95
2018-02-07T23:24:33.727Z,33.13
2018-02-07T23:27:01.214Z,32.83
2018-02-07T23:29:28.713Z,34.05
2018-02-07T23:31:56.199Z,35.70
2018-02-07T23:34:23.686Z,34.85
2018-02-07T23:36:51.157Z,33.87
2018-02-07T23:39:18.651Z,36.27
2018-02-07T23:41:46.893Z,36.67
2018-02-07T23:44:14.370Z,35.67
2018-02-07T23:46:42.628Z,36.90
2018-02-07T23:49:10.103Z,32.30
2018-02-07T23:51:37.603Z,35.03
2018-02-07T23:54:05.088Z,37.77
2018-02-07T23:56:32.562Z,38.47
2018-02-07T23:59:00.050Z,34.50
